sensor_id;sensor_type;location;lat;lon;timestamp;temperature;humidity
336;DHT22;156;48.738;9.228;2023-06-26T00:01:57;21.30;1.00
336;DHT22;156;48.738;9.228;2023-06-26T00:04:24;21.30;1.00
336;DHT22;156;48.738;9.228;2023-06-26T00:06:52;21.30;1.00
336;DHT22;156;48.738;9.228;2023-06-26T00:09:19;21.40;1.00
336;DHT22;156;48.738;9.228;2023-06-26T00:11:46;21.30;1.00
336;DHT22;156;48.738;9.228;2023-06-26T00:14:13;21.30;1.00
336;DHT22;156;48.738;9.228;2023-06-26T00:16:40;21.40;1.00
336;DHT22;156;48.738;9.228;2023-06-26T00:19:08;21.40;1.00
336;DHT22;156;48.738;9.228;2023-06-26T00:25:25;21.50;1.00
336;DHT22;156;48.738;9.228;2023-06-26T00:27:59;21.40;1.00
336;DHT22;156;48.738;9.228;2023-06-26T00:30:34;21.40;1.00
336;DHT22;156;48.738;9.228;2023-06-26T00:33:03;21.30;1.00
336;DHT22;156;48.738;9.228;2023-06-26T00:35:37;21.30;1.00
336;DHT22;156;48.738;9.228;2023-06-26T00:38:08;21.60;1.00
336;DHT22;156;48.738;9.228;2023-06-26T00:40:37;21.20;1.00
336;DHT22;156;48.738;9.228;2023-06-26T00:43:06;21.20;1.00
336;DHT22;156;48.738;9.228;2023-06-26T00:48:27;21.10;1.00
336;DHT22;156;48.738;9.228;2023-06-26T00:50:56;21.10;1.00
336;DHT22;156;48.738;9.228;2023-06-26T00:53:23;21.00;1.00
336;DHT22;156;48.738;9.228;2023-06-26T00:59:18;21.00;1.00
336;DHT22;156;48.738;9.228;2023-06-26T01:01:45;20.90;1.00
336;DHT22;156;48.738;9.228;2023-06-26T01:04:14;20.90;1.00
336;DHT22;156;48.738;9.228;2023-06-26T01:06:45;20.90;1.00
336;DHT22;156;48.738;9.228;2023-06-26T01:09:17;20.90;1.00
336;DHT22;156;48.738;9.228;2023-06-26T01:11:45;20.90;1.00
336;DHT22;156;48.738;9.228;2023-06-26T01:14:12;20.90;1.00
336;DHT22;156;48.738;9.228;2023-06-26T01:16:41;20.80;1.00
336;DHT22;156;48.738;9.228;2023-06-26T01:19:19;20.80;1.00
336;DHT22;156;48.738;9.228;2023-06-26T01:21:56;20.70;1.00
336;DHT22;156;48.738;9.228;2023-06-26T01:24:38;20.70;1.00
336;DHT22;156;48.738;9.228;2023-06-26T01:27:08;20.70;1.00
336;DHT22;156;48.738;9.228;2023-06-26T01:29:38;20.60;1.00
336;DHT22;156;48.738;9.228;2023-06-26T01:32:06;20.50;1.00
336;DHT22;156;48.738;9.228;2023-06-26T01:34:35;20.50;1.00
336;DHT22;156;48.738;9.228;2023-06-26T01:37:02;20.50;1.00
336;DHT22;156;48.738;9.228;2023-06-26T01:39:31;20.50;1.00
336;DHT22;156;48.738;9.228;2023-06-26T01:41:58;20.50;1.00
336;DHT22;156;48.738;9.228;2023-06-26T01:44:29;20.50;1.00
336;DHT22;156;48.738;9.228;2023-06-26T01:46:59;20.60;1.00
336;DHT22;156;48.738;9.228;2023-06-26T01:49:38;20.60;1.00
336;DHT22;156;48.738;9.228;2023-06-26T01:52:12;20.60;1.00
336;DHT22;156;48.738;9.228;2023-06-26T01:54:46;20.50;1.00
336;DHT22;156;48.738;9.228;2023-06-26T01:57:18;20.60;1.00
336;DHT22;156;48.738;9.228;2023-06-26T01:59:47;20.50;1.00
336;DHT22;156;48.738;9.228;2023-06-26T02:02:14;20.60;1.00
336;DHT22;156;48.738;9.228;2023-06-26T02:04:42;20.60;1.00
336;DHT22;156;48.738;9.228;2023-06-26T02:07:11;20.60;1.00
336;DHT22;156;48.738;9.228;2023-06-26T02:09:38;20.60;1.00
336;DHT22;156;48.738;9.228;2023-06-26T02:12:06;20.60;1.00
336;DHT22;156;48.738;9.228;2023-06-26T02:14:33;20.60;1.00
336;DHT22;156;48.738;9.228;2023-06-26T02:17:01;20.60;1.00
336;DHT22;156;48.738;9.228;2023-06-26T02:19:28;20.60;1.00
336;DHT22;156;48.738;9.228;2023-06-26T02:21:55;20.60;1.00
336;DHT22;156;48.738;9.228;2023-06-26T02:24:22;20.50;1.00
336;DHT22;156;48.738;9.228;2023-06-26T02:26:49;20.50;1.00
336;DHT22;156;48.738;9.228;2023-06-26T02:29:16;20.40;1.00
336;DHT22;156;48.738;9.228;2023-06-26T02:31:43;20.40;1.00
336;DHT22;156;48.738;9.228;2023-06-26T02:34:11;20.40;1.00
336;DHT22;156;48.738;9.228;2023-06-26T02:36:38;20.30;1.00
336;DHT22;156;48.738;9.228;2023-06-26T02:39:08;20.40;1.00
336;DHT22;156;48.738;9.228;2023-06-26T02:41:38;20.20;1.00
336;DHT22;156;48.738;9.228;2023-06-26T02:44:09;20.20;1.00
336;DHT22;156;48.738;9.228;2023-06-26T02:46:37;20.10;1.00
336;DHT22;156;48.738;9.228;2023-06-26T02:49:04;20.00;1.00
336;DHT22;156;48.738;9.228;2023-06-26T02:51:33;19.90;1.00
336;DHT22;156;48.738;9.228;2023-06-26T02:54:00;20.00;1.00
336;DHT22;156;48.738;9.228;2023-06-26T02:56:29;20.00;1.00
336;DHT22;156;48.738;9.228;2023-06-26T02:58:57;20.00;1.00
336;DHT22;156;48.738;9.228;2023-06-26T03:01:24;20.00;1.00
336;DHT22;156;48.738;9.228;2023-06-26T03:03:52;20.00;1.00
336;DHT22;156;48.738;9.228;2023-06-26T03:06:19;20.00;1.00
336;DHT22;156;48.738;9.228;2023-06-26T03:08:48;20.00;1.00
336;DHT22;156;48.738;9.228;2023-06-26T03:11:14;19.90;1.00
336;DHT22;156;48.738;9.228;2023-06-26T03:13:44;20.00;1.00
336;DHT22;156;48.738;9.228;2023-06-26T03:16:11;20.00;1.00
336;DHT22;156;48.738;9.228;2023-06-26T03:18:38;19.90;1.00
336;DHT22;156;48.738;9.228;2023-06-26T03:21:05;19.90;1.00
336;DHT22;156;48.738;9.228;2023-06-26T03:23:32;19.80;1.00
336;DHT22;156;48.738;9.228;2023-06-26T03:26:00;19.80;1.00
336;DHT22;156;48.738;9.228;2023-06-26T03:28:27;19.80;1.00
336;DHT22;156;48.738;9.228;2023-06-26T03:30:56;19.80;1.00
336;DHT22;156;48.738;9.228;2023-06-26T03:33:26;19.80;1.00
336;DHT22;156;48.738;9.228;2023-06-26T03:35:56;19.70;1.00
336;DHT22;156;48.738;9.228;2023-06-26T03:38:24;19.70;1.00
336;DHT22;156;48.738;9.228;2023-06-26T03:40:51;19.60;1.00
336;DHT22;156;48.738;9.228;2023-06-26T03:43:23;19.60;1.00
336;DHT22;156;48.738;9.228;2023-06-26T03:45:50;19.60;1.00
336;DHT22;156;48.738;9.228;2023-06-26T03:48:19;19.60;1.00
336;DHT22;156;48.738;9.228;2023-06-26T03:50:46;19.60;1.00
336;DHT22;156;48.738;9.228;2023-06-26T03:53:13;19.60;1.00
336;DHT22;156;48.738;9.228;2023-06-26T03:55:43;19.60;1.00
336;DHT22;156;48.738;9.228;2023-06-26T03:58:10;19.50;1.00
336;DHT22;156;48.738;9.228;2023-06-26T04:00:38;19.50;1.00
336;DHT22;156;48.738;9.228;2023-06-26T04:03:05;19.60;1.00
336;DHT22;156;48.738;9.228;2023-06-26T04:05:32;19.60;1.00
336;DHT22;156;48.738;9.228;2023-06-26T04:08:01;19.60;1.00
336;DHT22;156;48.738;9.228;2023-06-26T04:10:28;19.70;1.00
336;DHT22;156;48.738;9.228;2023-06-26T04:12:55;19.70;1.00
336;DHT22;156;48.738;9.228;2023-06-26T04:15:22;19.80;1.00
336;DHT22;156;48.738;9.228;2023-06-26T04:17:50;19.80;1.00
336;DHT22;156;48.738;9.228;2023-06-26T04:20:17;19.70;1.00
336;DHT22;156;48.738;9.228;2023-06-26T04:22:44;19.70;1.00
336;DHT22;156;48.738;9.228;2023-06-26T04:25:11;19.70;1.00
336;DHT22;156;48.738;9.228;2023-06-26T04:27:38;19.70;1.00
336;DHT22;156;48.738;9.228;2023-06-26T04:30:06;19.70;1.00
336;DHT22;156;48.738;9.228;2023-06-26T04:32:33;19.70;1.00
336;DHT22;156;48.738;9.228;2023-06-26T04:35:02;19.70;1.00
336;DHT22;156;48.738;9.228;2023-06-26T04:37:29;19.70;1.00
336;DHT22;156;48.738;9.228;2023-06-26T04:39:57;19.70;1.00
336;DHT22;156;48.738;9.228;2023-06-26T04:42:25;19.70;1.00
336;DHT22;156;48.738;9.228;2023-06-26T04:44:57;19.70;1.00
336;DHT22;156;48.738;9.228;2023-06-26T04:47:24;19.70;1.00
336;DHT22;156;48.738;9.228;2023-06-26T04:49:51;19.80;1.00
336;DHT22;156;48.738;9.228;2023-06-26T04:52:19;19.80;1.00
336;DHT22;156;48.738;9.228;2023-06-26T04:54:46;19.80;1.00
336;DHT22;156;48.738;9.228;2023-06-26T04:57:13;19.80;1.00
336;DHT22;156;48.738;9.228;2023-06-26T04:59:40;19.80;1.00
336;DHT22;156;48.738;9.228;2023-06-26T05:02:07;19.90;1.00
336;DHT22;156;48.738;9.228;2023-06-26T05:04:34;20.00;1.00
336;DHT22;156;48.738;9.228;2023-06-26T05:07:01;20.00;1.00
336;DHT22;156;48.738;9.228;2023-06-26T05:09:29;20.10;1.00
336;DHT22;156;48.738;9.228;2023-06-26T05:11:56;20.10;1.00
336;DHT22;156;48.738;9.228;2023-06-26T05:14:23;20.20;1.00
336;DHT22;156;48.738;9.228;2023-06-26T05:16:50;20.30;1.00
336;DHT22;156;48.738;9.228;2023-06-26T05:19:16;20.40;1.00
336;DHT22;156;48.738;9.228;2023-06-26T05:21:43;20.50;1.00
336;DHT22;156;48.738;9.228;2023-06-26T05:24:13;20.50;1.00
336;DHT22;156;48.738;9.228;2023-06-26T05:26:43;20.50;1.00
336;DHT22;156;48.738;9.228;2023-06-26T05:29:10;20.60;1.00
336;DHT22;156;48.738;9.228;2023-06-26T05:31:40;20.60;1.00
336;DHT22;156;48.738;9.228;2023-06-26T05:34:10;20.60;1.00
336;DHT22;156;48.738;9.228;2023-06-26T05:36:39;20.70;1.00
336;DHT22;156;48.738;9.228;2023-06-26T05:39:07;20.70;1.00
336;DHT22;156;48.738;9.228;2023-06-26T05:41:34;20.80;1.00
336;DHT22;156;48.738;9.228;2023-06-26T05:44:03;20.80;1.00
336;DHT22;156;48.738;9.228;2023-06-26T05:46:29;20.90;1.00
336;DHT22;156;48.738;9.228;2023-06-26T05:48:57;21.00;1.00
336;DHT22;156;48.738;9.228;2023-06-26T05:51:24;21.10;1.00
336;DHT22;156;48.738;9.228;2023-06-26T05:53:51;21.20;1.00
336;DHT22;156;48.738;9.228;2023-06-26T05:56:19;21.20;1.00
336;DHT22;156;48.738;9.228;2023-06-26T05:58:46;21.40;1.00
336;DHT22;156;48.738;9.228;2023-06-26T06:01:15;21.50;1.00
336;DHT22;156;48.738;9.228;2023-06-26T06:03:42;21.50;1.00
336;DHT22;156;48.738;9.228;2023-06-26T06:06:09;21.60;1.00
336;DHT22;156;48.738;9.228;2023-06-26T06:08:40;21.70;1.00
336;DHT22;156;48.738;9.228;2023-06-26T06:11:07;21.80;1.00
336;DHT22;156;48.738;9.228;2023-06-26T06:13:34;21.90;1.00
336;DHT22;156;48.738;9.228;2023-06-26T06:16:01;22.00;1.00
336;DHT22;156;48.738;9.228;2023-06-26T06:18:29;22.00;1.00
336;DHT22;156;48.738;9.228;2023-06-26T06:20:56;22.20;1.00
336;DHT22;156;48.738;9.228;2023-06-26T06:23:23;22.30;1.00
336;DHT22;156;48.738;9.228;2023-06-26T06:25:50;22.40;1.00
336;DHT22;156;48.738;9.228;2023-06-26T06:28:17;22.50;1.00
336;DHT22;156;48.738;9.228;2023-06-26T06:30:44;22.60;1.00
336;DHT22;156;48.738;9.228;2023-06-26T06:33:13;22.70;1.00
336;DHT22;156;48.738;9.228;2023-06-26T06:35:46;22.80;1.00
336;DHT22;156;48.738;9.228;2023-06-26T06:38:13;22.90;1.00
336;DHT22;156;48.738;9.228;2023-06-26T06:40:40;23.00;1.00
336;DHT22;156;48.738;9.228;2023-06-26T06:43:07;23.10;1.00
336;DHT22;156;48.738;9.228;2023-06-26T06:45:33;23.30;1.00
336;DHT22;156;48.738;9.228;2023-06-26T06:48:00;23.30;1.00
336;DHT22;156;48.738;9.228;2023-06-26T06:50:27;23.40;1.00
336;DHT22;156;48.738;9.228;2023-06-26T06:52:55;23.60;1.00
336;DHT22;156;48.738;9.228;2023-06-26T06:55:22;23.60;1.00
336;DHT22;156;48.738;9.228;2023-06-26T06:57:51;23.80;1.00
336;DHT22;156;48.738;9.228;2023-06-26T07:00:18;23.90;1.00
336;DHT22;156;48.738;9.228;2023-06-26T07:02:46;24.00;1.00
336;DHT22;156;48.738;9.228;2023-06-26T07:05:13;24.20;1.00
336;DHT22;156;48.738;9.228;2023-06-26T07:07:40;24.30;1.00
336;DHT22;156;48.738;9.228;2023-06-26T07:10:10;23.60;1.00
336;DHT22;156;48.738;9.228;2023-06-26T07:12:38;24.60;1.00
336;DHT22;156;48.738;9.228;2023-06-26T07:15:06;24.80;1.00
336;DHT22;156;48.738;9.228;2023-06-26T07:17:33;25.00;1.00
336;DHT22;156;48.738;9.228;2023-06-26T07:20:01;25.00;1.00
336;DHT22;156;48.738;9.228;2023-06-26T07:22:32;25.10;1.00
336;DHT22;156;48.738;9.228;2023-06-26T07:24:59;25.30;1.00
336;DHT22;156;48.738;9.228;2023-06-26T07:27:27;25.50;1.00
336;DHT22;156;48.738;9.228;2023-06-26T07:30:04;25.70;1.00
336;DHT22;156;48.738;9.228;2023-06-26T07:32:31;25.90;1.00
336;DHT22;156;48.738;9.228;2023-06-26T07:34:58;25.90;1.00
336;DHT22;156;48.738;9.228;2023-06-26T07:37:25;26.00;1.00
336;DHT22;156;48.738;9.228;2023-06-26T07:39:52;26.10;1.00
336;DHT22;156;48.738;9.228;2023-06-26T07:42:19;26.20;1.00
336;DHT22;156;48.738;9.228;2023-06-26T07:44:47;26.30;1.00
336;DHT22;156;48.738;9.228;2023-06-26T07:47:15;26.30;1.00
336;DHT22;156;48.738;9.228;2023-06-26T07:49:42;26.40;1.00
336;DHT22;156;48.738;9.228;2023-06-26T07:52:09;26.50;1.00
336;DHT22;156;48.738;9.228;2023-06-26T07:54:36;26.60;1.00
336;DHT22;156;48.738;9.228;2023-06-26T07:57:04;26.70;1.00
336;DHT22;156;48.738;9.228;2023-06-26T07:59:32;26.70;1.00
336;DHT22;156;48.738;9.228;2023-06-26T08:02:01;26.60;1.00
336;DHT22;156;48.738;9.228;2023-06-26T08:04:29;26.70;1.00
336;DHT22;156;48.738;9.228;2023-06-26T08:06:58;26.60;1.00
336;DHT22;156;48.738;9.228;2023-06-26T08:09:26;26.80;1.00
336;DHT22;156;48.738;9.228;2023-06-26T08:12:07;27.00;1.00
336;DHT22;156;48.738;9.228;2023-06-26T08:14:34;27.20;1.00
336;DHT22;156;48.738;9.228;2023-06-26T08:17:02;27.20;1.00
336;DHT22;156;48.738;9.228;2023-06-26T08:19:29;27.30;1.00
336;DHT22;156;48.738;9.228;2023-06-26T08:21:56;27.40;1.00
336;DHT22;156;48.738;9.228;2023-06-26T08:24:26;27.40;1.00
336;DHT22;156;48.738;9.228;2023-06-26T08:26:52;27.60;1.00
336;DHT22;156;48.738;9.228;2023-06-26T08:29:19;27.60;1.00
336;DHT22;156;48.738;9.228;2023-06-26T08:31:46;27.60;1.00
336;DHT22;156;48.738;9.228;2023-06-26T08:34:15;27.70;1.00
336;DHT22;156;48.738;9.228;2023-06-26T08:36:44;27.80;1.00
336;DHT22;156;48.738;9.228;2023-06-26T08:39:14;27.50;1.00
336;DHT22;156;48.738;9.228;2023-06-26T08:41:41;27.80;1.00
336;DHT22;156;48.738;9.228;2023-06-26T08:44:08;27.80;1.00
336;DHT22;156;48.738;9.228;2023-06-26T08:46:36;27.90;1.00
336;DHT22;156;48.738;9.228;2023-06-26T08:49:09;27.90;1.00
336;DHT22;156;48.738;9.228;2023-06-26T08:51:40;27.80;1.00
336;DHT22;156;48.738;9.228;2023-06-26T08:54:12;28.00;1.00
336;DHT22;156;48.738;9.228;2023-06-26T08:56:44;28.00;1.00
336;DHT22;156;48.738;9.228;2023-06-26T08:59:14;28.00;1.00
336;DHT22;156;48.738;9.228;2023-06-26T09:01:42;28.00;1.00
336;DHT22;156;48.738;9.228;2023-06-26T09:04:09;28.10;1.00
336;DHT22;156;48.738;9.228;2023-06-26T09:06:36;28.30;1.00
336;DHT22;156;48.738;9.228;2023-06-26T09:09:06;28.40;1.00
336;DHT22;156;48.738;9.228;2023-06-26T09:11:33;28.50;1.00
336;DHT22;156;48.738;9.228;2023-06-26T09:14:01;28.60;1.00
336;DHT22;156;48.738;9.228;2023-06-26T09:16:30;28.80;1.00
336;DHT22;156;48.738;9.228;2023-06-26T09:18:57;28.80;1.00
336;DHT22;156;48.738;9.228;2023-06-26T09:21:24;28.90;1.00
336;DHT22;156;48.738;9.228;2023-06-26T09:23:52;29.10;1.00
336;DHT22;156;48.738;9.228;2023-06-26T09:26:21;29.30;1.00
336;DHT22;156;48.738;9.228;2023-06-26T09:28:49;29.20;1.00
336;DHT22;156;48.738;9.228;2023-06-26T09:31:17;28.80;1.00
336;DHT22;156;48.738;9.228;2023-06-26T09:33:46;28.70;1.00
336;DHT22;156;48.738;9.228;2023-06-26T09:36:19;28.80;1.00
336;DHT22;156;48.738;9.228;2023-06-26T09:38:47;28.70;1.00
336;DHT22;156;48.738;9.228;2023-06-26T09:41:16;29.10;1.00
336;DHT22;156;48.738;9.228;2023-06-26T09:43:48;29.20;1.00
336;DHT22;156;48.738;9.228;2023-06-26T09:46:16;29.30;1.00
336;DHT22;156;48.738;9.228;2023-06-26T09:48:43;29.30;1.00
336;DHT22;156;48.738;9.228;2023-06-26T09:51:10;29.60;1.00
336;DHT22;156;48.738;9.228;2023-06-26T09:53:44;29.70;1.00
336;DHT22;156;48.738;9.228;2023-06-26T09:56:15;29.70;1.00
336;DHT22;156;48.738;9.228;2023-06-26T09:58:44;29.80;1.00
336;DHT22;156;48.738;9.228;2023-06-26T10:01:15;29.90;1.00
336;DHT22;156;48.738;9.228;2023-06-26T10:03:42;29.90;1.00
336;DHT22;156;48.738;9.228;2023-06-26T10:06:09;29.70;1.00
336;DHT22;156;48.738;9.228;2023-06-26T10:08:39;29.60;1.00
336;DHT22;156;48.738;9.228;2023-06-26T10:11:14;29.60;1.00
336;DHT22;156;48.738;9.228;2023-06-26T10:13:43;29.50;1.00
336;DHT22;156;48.738;9.228;2023-06-26T10:16:16;29.40;1.00
336;DHT22;156;48.738;9.228;2023-06-26T10:18:45;29.30;1.00
336;DHT22;156;48.738;9.228;2023-06-26T10:21:12;29.50;1.00
336;DHT22;156;48.738;9.228;2023-06-26T10:23:41;29.60;1.00
336;DHT22;156;48.738;9.228;2023-06-26T10:26:11;29.70;1.00
336;DHT22;156;48.738;9.228;2023-06-26T10:28:41;29.50;1.00
336;DHT22;156;48.738;9.228;2023-06-26T10:31:17;29.60;1.00
336;DHT22;156;48.738;9.228;2023-06-26T10:33:47;29.80;1.00
336;DHT22;156;48.738;9.228;2023-06-26T10:36:41;29.70;1.00
336;DHT22;156;48.738;9.228;2023-06-26T10:39:11;29.40;1.00
336;DHT22;156;48.738;9.228;2023-06-26T10:41:41;29.20;1.00
336;DHT22;156;48.738;9.228;2023-06-26T10:44:09;28.90;1.00
336;DHT22;156;48.738;9.228;2023-06-26T10:46:51;28.60;1.00
336;DHT22;156;48.738;9.228;2023-06-26T10:49:19;28.40;1.00
336;DHT22;156;48.738;9.228;2023-06-26T10:51:47;28.20;1.00
336;DHT22;156;48.738;9.228;2023-06-26T10:54:15;28.00;1.00
336;DHT22;156;48.738;9.228;2023-06-26T10:56:44;27.90;1.00
336;DHT22;156;48.738;9.228;2023-06-26T10:59:16;27.80;1.00
336;DHT22;156;48.738;9.228;2023-06-26T11:01:44;27.80;1.00
336;DHT22;156;48.738;9.228;2023-06-26T11:04:14;28.00;1.00
336;DHT22;156;48.738;9.228;2023-06-26T11:06:46;28.20;1.00
336;DHT22;156;48.738;9.228;2023-06-26T11:09:17;28.30;1.00
336;DHT22;156;48.738;9.228;2023-06-26T11:11:57;28.40;1.00
336;DHT22;156;48.738;9.228;2023-06-26T11:14:34;28.60;1.00
336;DHT22;156;48.738;9.228;2023-06-26T11:17:03;28.60;1.00
336;DHT22;156;48.738;9.228;2023-06-26T11:19:32;28.50;1.00
336;DHT22;156;48.738;9.228;2023-06-26T11:22:03;28.40;1.00
336;DHT22;156;48.738;9.228;2023-06-26T11:24:31;28.40;1.00
336;DHT22;156;48.738;9.228;2023-06-26T11:27:03;28.60;1.00
336;DHT22;156;48.738;9.228;2023-06-26T11:29:32;28.60;1.00
336;DHT22;156;48.738;9.228;2023-06-26T11:32:00;28.70;1.00
336;DHT22;156;48.738;9.228;2023-06-26T11:34:30;28.60;1.00
336;DHT22;156;48.738;9.228;2023-06-26T11:36:58;28.50;1.00
336;DHT22;156;48.738;9.228;2023-06-26T11:39:28;28.50;1.00
336;DHT22;156;48.738;9.228;2023-06-26T11:41:55;28.60;1.00
336;DHT22;156;48.738;9.228;2023-06-26T11:44:35;28.50;1.00
336;DHT22;156;48.738;9.228;2023-06-26T11:47:42;28.60;1.00
336;DHT22;156;48.738;9.228;2023-06-26T11:53:49;28.70;1.00
336;DHT22;156;48.738;9.228;2023-06-26T11:56:31;28.80;1.00
336;DHT22;156;48.738;9.228;2023-06-26T11:58:59;28.60;1.00
336;DHT22;156;48.738;9.228;2023-06-26T12:01:31;28.90;1.00
336;DHT22;156;48.738;9.228;2023-06-26T12:03:59;28.70;1.00
336;DHT22;156;48.738;9.228;2023-06-26T12:06:29;28.60;1.00
336;DHT22;156;48.738;9.228;2023-06-26T12:09:01;28.70;1.00
336;DHT22;156;48.738;9.228;2023-06-26T12:11:29;28.70;1.00
336;DHT22;156;48.738;9.228;2023-06-26T12:13:57;28.80;1.00
336;DHT22;156;48.738;9.228;2023-06-26T12:16:24;28.80;1.00
336;DHT22;156;48.738;9.228;2023-06-26T12:18:58;28.70;1.00
336;DHT22;156;48.738;9.228;2023-06-26T12:21:43;28.90;1.00
336;DHT22;156;48.738;9.228;2023-06-26T12:24:14;28.70;1.00
336;DHT22;156;48.738;9.228;2023-06-26T12:26:42;28.70;1.00
336;DHT22;156;48.738;9.228;2023-06-26T12:29:11;28.50;1.00
336;DHT22;156;48.738;9.228;2023-06-26T12:31:40;28.40;1.00
336;DHT22;156;48.738;9.228;2023-06-26T12:34:12;28.40;1.00
336;DHT22;156;48.738;9.228;2023-06-26T12:36:44;28.40;1.00
336;DHT22;156;48.738;9.228;2023-06-26T12:39:13;28.60;1.00
336;DHT22;156;48.738;9.228;2023-06-26T12:41:53;28.70;1.00
336;DHT22;156;48.738;9.228;2023-06-26T12:44:21;28.80;1.00
336;DHT22;156;48.738;9.228;2023-06-26T12:46:49;29.10;1.00
336;DHT22;156;48.738;9.228;2023-06-26T12:49:20;29.10;1.00
336;DHT22;156;48.738;9.228;2023-06-26T12:51:47;29.10;1.00
336;DHT22;156;48.738;9.228;2023-06-26T12:54:15;29.10;1.00
336;DHT22;156;48.738;9.228;2023-06-26T12:56:42;29.30;1.00
336;DHT22;156;48.738;9.228;2023-06-26T12:59:09;29.00;1.00
336;DHT22;156;48.738;9.228;2023-06-26T13:01:36;29.10;1.00
336;DHT22;156;48.738;9.228;2023-06-26T13:04:03;29.00;1.00
336;DHT22;156;48.738;9.228;2023-06-26T13:06:31;29.40;1.00
336;DHT22;156;48.738;9.228;2023-06-26T13:08:58;29.20;1.00
336;DHT22;156;48.738;9.228;2023-06-26T13:11:27;29.10;1.00
336;DHT22;156;48.738;9.228;2023-06-26T13:13:53;29.30;1.00
336;DHT22;156;48.738;9.228;2023-06-26T13:16:20;29.10;1.00
336;DHT22;156;48.738;9.228;2023-06-26T13:18:47;29.20;1.00
336;DHT22;156;48.738;9.228;2023-06-26T13:21:14;29.60;1.00
336;DHT22;156;48.738;9.228;2023-06-26T13:23:42;29.60;1.00
336;DHT22;156;48.738;9.228;2023-06-26T13:26:11;29.30;1.00
336;DHT22;156;48.738;9.228;2023-06-26T13:28:43;29.70;1.00
336;DHT22;156;48.738;9.228;2023-06-26T13:31:09;29.50;1.00
336;DHT22;156;48.738;9.228;2023-06-26T13:33:36;29.00;1.00
336;DHT22;156;48.738;9.228;2023-06-26T13:36:04;29.10;1.00
336;DHT22;156;48.738;9.228;2023-06-26T13:38:34;29.60;1.00
336;DHT22;156;48.738;9.228;2023-06-26T13:41:03;29.90;1.00
336;DHT22;156;48.738;9.228;2023-06-26T13:43:30;29.50;1.00
336;DHT22;156;48.738;9.228;2023-06-26T13:45:59;29.20;1.00
336;DHT22;156;48.738;9.228;2023-06-26T13:48:30;28.70;1.00
336;DHT22;156;48.738;9.228;2023-06-26T13:50:58;29.00;1.00
336;DHT22;156;48.738;9.228;2023-06-26T13:53:25;28.80;1.00
336;DHT22;156;48.738;9.228;2023-06-26T13:55:52;29.10;1.00
336;DHT22;156;48.738;9.228;2023-06-26T13:58:19;28.70;1.00
336;DHT22;156;48.738;9.228;2023-06-26T14:00:50;28.80;1.00
336;DHT22;156;48.738;9.228;2023-06-26T14:03:18;28.70;1.00
336;DHT22;156;48.738;9.228;2023-06-26T14:05:45;28.90;1.00
336;DHT22;156;48.738;9.228;2023-06-26T14:08:12;28.70;1.00
336;DHT22;156;48.738;9.228;2023-06-26T14:10:39;28.30;1.00
336;DHT22;156;48.738;9.228;2023-06-26T14:13:06;28.70;1.00
336;DHT22;156;48.738;9.228;2023-06-26T14:15:34;28.90;1.00
336;DHT22;156;48.738;9.228;2023-06-26T14:18:02;29.00;1.00
336;DHT22;156;48.738;9.228;2023-06-26T14:20:31;28.70;1.00
336;DHT22;156;48.738;9.228;2023-06-26T14:22:59;28.70;1.00
336;DHT22;156;48.738;9.228;2023-06-26T14:25:27;28.50;1.00
336;DHT22;156;48.738;9.228;2023-06-26T14:27:55;28.90;1.00
336;DHT22;156;48.738;9.228;2023-06-26T14:30:25;28.80;1.00
336;DHT22;156;48.738;9.228;2023-06-26T14:32:52;29.00;1.00
336;DHT22;156;48.738;9.228;2023-06-26T14:35:21;28.60;1.00
336;DHT22;156;48.738;9.228;2023-06-26T14:37:51;28.60;1.00
336;DHT22;156;48.738;9.228;2023-06-26T14:40:22;28.40;1.00
336;DHT22;156;48.738;9.228;2023-06-26T14:42:49;28.30;1.00
336;DHT22;156;48.738;9.228;2023-06-26T14:45:15;28.40;1.00
336;DHT22;156;48.738;9.228;2023-06-26T14:47:42;28.40;1.00
336;DHT22;156;48.738;9.228;2023-06-26T14:50:09;28.50;1.00
336;DHT22;156;48.738;9.228;2023-06-26T14:52:38;28.70;1.00
336;DHT22;156;48.738;9.228;2023-06-26T14:55:16;28.80;1.00
336;DHT22;156;48.738;9.228;2023-06-26T14:57:44;28.90;1.00
336;DHT22;156;48.738;9.228;2023-06-26T15:00:17;29.10;1.00
336;DHT22;156;48.738;9.228;2023-06-26T15:02:48;28.60;1.00
336;DHT22;156;48.738;9.228;2023-06-26T15:05:23;28.20;1.00
336;DHT22;156;48.738;9.228;2023-06-26T15:11:13;28.30;1.00
336;DHT22;156;48.738;9.228;2023-06-26T15:13:58;29.70;1.00
336;DHT22;156;48.738;9.228;2023-06-26T15:16:39;28.40;1.00
336;DHT22;156;48.738;9.228;2023-06-26T15:19:06;28.40;1.00
336;DHT22;156;48.738;9.228;2023-06-26T15:21:34;28.60;1.00
336;DHT22;156;48.738;9.228;2023-06-26T15:24:01;28.90;1.00
336;DHT22;156;48.738;9.228;2023-06-26T15:26:31;29.20;1.00
336;DHT22;156;48.738;9.228;2023-06-26T15:29:07;28.20;1.00
336;DHT22;156;48.738;9.228;2023-06-26T15:31:46;27.90;1.00
336;DHT22;156;48.738;9.228;2023-06-26T15:34:15;28.40;1.00
336;DHT22;156;48.738;9.228;2023-06-26T15:36:45;28.40;1.00
336;DHT22;156;48.738;9.228;2023-06-26T15:39:12;28.00;1.00
336;DHT22;156;48.738;9.228;2023-06-26T15:44:30;27.80;1.00
336;DHT22;156;48.738;9.228;2023-06-26T15:47:08;27.60;1.00
336;DHT22;156;48.738;9.228;2023-06-26T15:49:35;27.30;1.00
336;DHT22;156;48.738;9.228;2023-06-26T15:52:04;26.90;1.00
336;DHT22;156;48.738;9.228;2023-06-26T15:54:31;27.30;1.00
336;DHT22;156;48.738;9.228;2023-06-26T16:00:07;27.50;1.00
336;DHT22;156;48.738;9.228;2023-06-26T16:02:53;28.40;1.00
336;DHT22;156;48.738;9.228;2023-06-26T16:05:42;27.00;1.00
336;DHT22;156;48.738;9.228;2023-06-26T16:08:21;28.40;1.00
336;DHT22;156;48.738;9.228;2023-06-26T16:11:09;27.20;1.00
336;DHT22;156;48.738;9.228;2023-06-26T16:13:49;26.60;1.00
336;DHT22;156;48.738;9.228;2023-06-26T16:16:25;26.50;1.00
336;DHT22;156;48.738;9.228;2023-06-26T16:19:40;26.30;1.00
336;DHT22;156;48.738;9.228;2023-06-26T16:25:34;26.10;1.00
336;DHT22;156;48.738;9.228;2023-06-26T16:31:19;25.90;1.00
336;DHT22;156;48.738;9.228;2023-06-26T16:33:48;25.60;1.00
336;DHT22;156;48.738;9.228;2023-06-26T16:36:27;25.60;1.00
336;DHT22;156;48.738;9.228;2023-06-26T16:39:06;25.60;1.00
336;DHT22;156;48.738;9.228;2023-06-26T16:41:48;26.00;1.00
336;DHT22;156;48.738;9.228;2023-06-26T16:50:34;26.80;1.00
336;DHT22;156;48.738;9.228;2023-06-26T16:53:39;26.50;1.00
336;DHT22;156;48.738;9.228;2023-06-26T16:56:08;26.80;1.00
336;DHT22;156;48.738;9.228;2023-06-26T16:58:48;26.90;1.00
336;DHT22;156;48.738;9.228;2023-06-26T17:01:29;27.00;1.00
336;DHT22;156;48.738;9.228;2023-06-26T17:04:03;26.40;1.00
336;DHT22;156;48.738;9.228;2023-06-26T17:06:37;26.30;1.00
336;DHT22;156;48.738;9.228;2023-06-26T17:09:05;26.00;1.00
336;DHT22;156;48.738;9.228;2023-06-26T17:11:32;25.80;1.00
336;DHT22;156;48.738;9.228;2023-06-26T17:14:08;25.90;1.00
336;DHT22;156;48.738;9.228;2023-06-26T17:16:42;25.70;1.00
336;DHT22;156;48.738;9.228;2023-06-26T17:19:20;25.40;1.00
336;DHT22;156;48.738;9.228;2023-06-26T17:22:12;25.30;1.00
336;DHT22;156;48.738;9.228;2023-06-26T17:24:47;26.80;1.00
336;DHT22;156;48.738;9.228;2023-06-26T17:27:24;26.00;1.00
336;DHT22;156;48.738;9.228;2023-06-26T17:29:55;26.10;1.00
336;DHT22;156;48.738;9.228;2023-06-26T17:32:34;26.10;1.00
336;DHT22;156;48.738;9.228;2023-06-26T17:35:08;25.90;1.00
336;DHT22;156;48.738;9.228;2023-06-26T17:37:36;26.00;1.00
336;DHT22;156;48.738;9.228;2023-06-26T17:40:10;25.90;1.00
336;DHT22;156;48.738;9.228;2023-06-26T17:42:39;25.80;1.00
336;DHT22;156;48.738;9.228;2023-06-26T17:45:13;25.40;1.00